createdAt,value
2022-08-14T00:00:16.122Z,19.10
2022-08-14T00:02:45.981Z,19.00
2022-08-14T00:05:16.605Z,18.90
2022-08-14T00:07:46.329Z,18.90
2022-08-14T00:10:52.178Z,18.80
2022-08-14T00:13:07.279Z,18.80
2022-08-14T00:15:44.303Z,18.70
2022-08-14T00:18:30.788Z,18.60
2022-08-14T00:21:11.287Z,18.70
2022-08-14T00:23:40.280Z,18.60
2022-08-14T00:26:21.778Z,18.60
2022-08-14T00:28:54.590Z,18.50
2022-08-14T00:31:35.251Z,18.50
2022-08-14T00:34:35.524Z,18.50
2022-08-14T00:36:59.787Z,18.50
2022-08-14T00:39:30.327Z,18.50
2022-08-14T00:41:58.894Z,18.60
2022-08-14T00:44:32.843Z,18.60
2022-08-14T00:47:02.570Z,18.50
2022-08-14T00:49:31.122Z,18.50
2022-08-14T00:52:07.164Z,18.50
2022-08-14T00:54:37.528Z,18.40
2022-08-14T00:57:07.121Z,18.50
2022-08-14T00:59:38.287Z,18.60
2022-08-14T01:02:09.326Z,18.50
2022-08-14T01:04:53.749Z,18.40
2022-08-14T01:07:24.775Z,18.40
2022-08-14T01:09:58.913Z,18.30
2022-08-14T01:12:30.471Z,18.20
2022-08-14T01:15:01.889Z,18.10
2022-08-14T01:17:49.759Z,18.00
2022-08-14T01:20:39.962Z,17.90
2022-08-14T01:23:16.708Z,17.80
2022-08-14T01:25:51.329Z,17.70
2022-08-14T01:28:47.332Z,17.70
2022-08-14T01:31:12.541Z,17.80
2022-08-14T01:35:15.751Z,17.80
2022-08-14T01:36:39.464Z,17.70
2022-08-14T01:39:13.508Z,17.60
2022-08-14T01:41:44.415Z,17.50
2022-08-14T01:47:01.061Z,17.30
2022-08-14T01:49:35.524Z,17.20
2022-08-14T01:52:23.271Z,17.20
2022-08-14T01:55:01.491Z,17.30
2022-08-14T01:57:49.725Z,17.70
2022-08-14T02:00:18.811Z,18.10
2022-08-14T02:02:47.699Z,18.30
2022-08-14T02:05:21.432Z,18.50
2022-08-14T02:08:08.569Z,18.50
2022-08-14T02:10:46.569Z,18.50
2022-08-14T02:13:12.520Z,18.30
2022-08-14T02:15:43.762Z,18.20
2022-08-14T02:18:15.278Z,18.20
2022-08-14T02:20:43.759Z,18.10
2022-08-14T02:23:12.187Z,18.00
2022-08-14T02:25:41.939Z,17.80
2022-08-14T02:28:22.669Z,17.60
2022-08-14T02:30:59.856Z,17.60
2022-08-14T02:33:29.546Z,17.50
2022-08-14T02:36:05.263Z,17.30
2022-08-14T02:38:52.079Z,17.20
2022-08-14T02:41:22.014Z,17.10
2022-08-14T02:44:00.982Z,17.00
2022-08-14T02:46:32.242Z,16.90
2022-08-14T02:49:06.273Z,16.70
2022-08-14T02:51:36.440Z,16.70
2022-08-14T02:54:07.166Z,16.60
2022-08-14T02:57:16.500Z,16.40
2022-08-14T02:59:33.785Z,16.20
2022-08-14T03:02:03.306Z,16.10
2022-08-14T03:04:32.713Z,16.20
2022-08-14T03:07:07.463Z,16.20
2022-08-14T03:10:25.189Z,16.10
2022-08-14T03:12:32.227Z,16.00
2022-08-14T03:15:14.235Z,16.10
2022-08-14T03:17:57.391Z,16.10
2022-08-14T03:20:27.871Z,15.90
2022-08-14T03:22:59.473Z,15.80
2022-08-14T03:25:31.075Z,15.70
2022-08-14T03:28:03.825Z,15.80
2022-08-14T03:30:39.856Z,15.70
2022-08-14T03:33:11.087Z,15.70
2022-08-14T03:35:59.801Z,15.70
2022-08-14T03:39:14.168Z,15.60
2022-08-14T03:41:23.316Z,15.60
2022-08-14T03:44:00.925Z,15.60
2022-08-14T03:46:38.767Z,15.80
2022-08-14T03:49:28.384Z,15.80
2022-08-14T03:52:00.442Z,15.90
2022-08-14T03:54:29.345Z,15.90
2022-08-14T03:57:02.495Z,15.90
2022-08-14T03:59:33.251Z,15.90
2022-08-14T04:02:04.501Z,15.90
2022-08-14T04:04:53.383Z,16.00
2022-08-14T04:07:22.515Z,16.00
2022-08-14T04:09:51.297Z,15.90
2022-08-14T04:12:26.644Z,15.80
2022-08-14T04:14:56.997Z,15.80
2022-08-14T04:17:26.435Z,15.80
2022-08-14T04:19:55.402Z,15.80
2022-08-14T04:22:25.256Z,15.80
2022-08-14T04:24:53.913Z,15.70
2022-08-14T04:27:23.263Z,15.70
2022-08-14T04:29:54.378Z,15.70
2022-08-14T04:33:01.834Z,15.70
2022-08-14T04:35:23.567Z,15.70
2022-08-14T04:38:36.626Z,15.60
2022-08-14T04:41:15.488Z,15.60
2022-08-14T04:43:43.995Z,15.60
2022-08-14T04:46:56.110Z,15.60
2022-08-14T04:49:08.074Z,15.60
2022-08-14T04:51:37.511Z,15.60
2022-08-14T04:54:24.616Z,15.60
2022-08-14T04:56:54.302Z,15.70
2022-08-14T04:59:23.159Z,15.80
2022-08-14T05:01:56.795Z,15.90
2022-08-14T05:04:26.958Z,16.00
2022-08-14T05:06:55.867Z,16.10
2022-08-14T05:09:29.048Z,16.30
2022-08-14T05:12:33.932Z,16.60
2022-08-14T05:14:54.550Z,16.70
2022-08-14T05:17:31.916Z,16.90
2022-08-14T05:21:55.529Z,17.10
2022-08-14T05:23:02.380Z,17.40
2022-08-14T05:25:33.699Z,17.70
2022-08-14T05:28:12.384Z,17.90
2022-08-14T05:30:43.707Z,18.20
2022-08-14T05:33:14.094Z,18.30
2022-08-14T05:35:45.305Z,18.50
2022-08-14T05:38:22.412Z,18.60
2022-08-14T05:40:59.730Z,18.70
2022-08-14T05:43:40.887Z,19.00
2022-08-14T05:46:15.263Z,19.30
2022-08-14T05:48:44.015Z,19.60
2022-08-14T05:51:15.162Z,19.80
2022-08-14T05:54:00.345Z,20.10
2022-08-14T05:56:32.655Z,20.20
2022-08-14T05:59:05.622Z,20.20
2022-08-14T06:01:35.953Z,20.20
2022-08-14T06:04:05.061Z,20.10
2022-08-14T06:06:38.510Z,20.10
2022-08-14T06:09:09.802Z,20.30
2022-08-14T06:11:38.487Z,20.50
2022-08-14T06:14:20.940Z,20.80
2022-08-14T06:16:50.122Z,21.10
2022-08-14T06:19:23.459Z,21.20
2022-08-14T06:21:58.402Z,21.40
2022-08-14T06:24:30.740Z,21.70
2022-08-14T06:27:04.690Z,21.80
2022-08-14T06:29:35.409Z,21.90
2022-08-14T06:32:52.543Z,22.10
2022-08-14T06:35:11.662Z,22.20
2022-08-14T06:37:45.186Z,22.50
2022-08-14T06:40:27.305Z,22.60
2022-08-14T06:43:00.020Z,22.60
2022-08-14T06:45:31.829Z,22.70
2022-08-14T06:48:01.296Z,22.90
2022-08-14T06:50:31.649Z,23.10
2022-08-14T06:53:03.411Z,23.30
2022-08-14T06:55:31.828Z,23.40
2022-08-14T06:58:00.117Z,23.50
2022-08-14T07:00:31.666Z,23.50
2022-08-14T07:03:17.865Z,23.50
2022-08-14T07:05:55.727Z,23.50
2022-08-14T07:08:31.183Z,23.90
2022-08-14T07:11:04.114Z,24.00
2022-08-14T07:13:32.753Z,23.90
2022-08-14T07:16:05.461Z,24.00
2022-08-14T07:18:35.768Z,24.10
2022-08-14T07:21:07.214Z,24.40
2022-08-14T07:23:40.243Z,24.80
2022-08-14T07:26:14.062Z,25.00
2022-08-14T07:28:43.852Z,25.10
2022-08-14T07:31:13.888Z,25.20
2022-08-14T07:33:50.532Z,25.30
2022-08-14T07:36:27.435Z,25.50
2022-08-14T07:39:00.918Z,25.70
2022-08-14T07:41:35.730Z,25.80
2022-08-14T07:44:32.456Z,25.90
2022-08-14T07:46:53.814Z,25.90
2022-08-14T07:49:24.505Z,26.00
2022-08-14T07:51:52.888Z,26.20
2022-08-14T07:54:23.296Z,26.20
2022-08-14T07:56:59.790Z,26.30
2022-08-14T07:59:41.615Z,26.50
2022-08-14T08:02:18.836Z,26.90
2022-08-14T08:04:54.249Z,26.90
2022-08-14T08:07:23.932Z,27.00
2022-08-14T08:09:57.241Z,27.00
2022-08-14T08:12:31.138Z,27.20
2022-08-14T08:15:05.812Z,27.40
2022-08-14T08:17:53.169Z,27.70
2022-08-14T08:20:27.234Z,28.00
2022-08-14T08:23:05.893Z,28.50
2022-08-14T08:25:39.669Z,28.30
2022-08-14T08:28:21.889Z,28.30
2022-08-14T08:30:53.271Z,28.10
2022-08-14T08:33:23.513Z,28.20
2022-08-14T08:35:53.450Z,28.40
2022-08-14T08:39:16.959Z,28.40
2022-08-14T08:41:14.588Z,28.50
2022-08-14T08:43:46.069Z,28.90
2022-08-14T08:46:21.161Z,29.20
2022-08-14T08:51:25.042Z,29.60
2022-08-14T08:54:01.097Z,29.60
2022-08-14T08:56:40.579Z,29.30
2022-08-14T08:59:31.130Z,29.10
2022-08-14T09:02:01.902Z,29.20
2022-08-14T09:04:37.630Z,29.50
2022-08-14T09:07:14.523Z,29.50
2022-08-14T09:09:54.045Z,29.80
2022-08-14T09:12:31.758Z,30.10
2022-08-14T09:15:02.899Z,30.60
2022-08-14T09:17:31.242Z,30.20
2022-08-14T09:20:02.267Z,30.10
2022-08-14T09:22:32.960Z,30.00
2022-08-14T09:25:19.500Z,30.00
2022-08-14T09:27:49.672Z,30.00
2022-08-14T09:30:32.887Z,29.90
2022-08-14T09:33:31.850Z,30.10
2022-08-14T09:36:22.539Z,30.20
2022-08-14T09:39:02.617Z,30.30
2022-08-14T09:42:20.821Z,29.90
2022-08-14T09:44:49.621Z,29.90
2022-08-14T09:47:18.735Z,29.80
2022-08-14T09:49:53.395Z,30.00
2022-08-14T09:52:33.945Z,30.40
2022-08-14T09:55:03.331Z,30.80
2022-08-14T09:57:32.576Z,31.00
2022-08-14T10:00:29.266Z,31.30
2022-08-14T10:03:05.872Z,31.50
2022-08-14T10:05:38.013Z,31.30
2022-08-14T10:08:25.368Z,31.40
2022-08-14T10:10:57.188Z,31.40
2022-08-14T10:13:42.878Z,31.40
2022-08-14T10:16:25.980Z,31.40
2022-08-14T10:19:09.226Z,31.80
2022-08-14T10:21:58.626Z,32.50
2022-08-14T10:24:36.915Z,32.90
2022-08-14T10:27:16.396Z,33.40
2022-08-14T10:29:48.676Z,33.60
2022-08-14T10:32:28.540Z,32.80
2022-08-14T10:35:13.749Z,32.30
2022-08-14T10:37:48.427Z,31.90
2022-08-14T10:40:37.697Z,32.20
2022-08-14T10:43:23.927Z,32.30
2022-08-14T10:46:03.855Z,32.40
2022-08-14T10:49:00.890Z,32.60
2022-08-14T10:51:34.060Z,32.60
2022-08-14T10:54:16.957Z,32.70
2022-08-14T10:57:20.675Z,33.10
2022-08-14T10:59:55.709Z,32.70
2022-08-14T11:02:44.691Z,33.20
2022-08-14T11:05:23.640Z,33.60
2022-08-14T11:08:00.366Z,33.60
2022-08-14T11:10:43.004Z,33.30
2022-08-14T11:13:16.466Z,33.40
2022-08-14T11:15:46.268Z,33.40
2022-08-14T11:18:20.612Z,33.60
2022-08-14T11:21:02.188Z,33.50
2022-08-14T11:23:37.754Z,33.30
2022-08-14T11:26:07.774Z,32.90
2022-08-14T11:28:47.522Z,32.90
2022-08-14T11:31:20.610Z,33.40
2022-08-14T11:33:57.625Z,33.90
2022-08-14T11:36:35.193Z,33.50
2022-08-14T11:39:34.003Z,33.80
2022-08-14T11:42:55.587Z,34.10
2022-08-14T11:45:00.152Z,34.00
2022-08-14T11:47:35.187Z,33.70
2022-08-14T11:50:24.926Z,33.40
2022-08-14T11:53:04.452Z,33.10
2022-08-14T11:55:38.321Z,33.20
2022-08-14T11:58:10.318Z,33.50
2022-08-14T12:00:48.642Z,33.50
2022-08-14T12:03:26.943Z,33.50
2022-08-14T12:06:27.807Z,33.20
2022-08-14T12:08:59.895Z,32.60
2022-08-14T12:11:43.497Z,32.20
2022-08-14T12:14:13.352Z,32.00
2022-08-14T12:17:24.217Z,32.00
2022-08-14T12:19:56.854Z,32.40
2022-08-14T12:24:53.933Z,32.60
2022-08-14T12:29:54.359Z,32.70
2022-08-14T12:32:25.394Z,33.10
2022-08-14T12:34:55.323Z,33.30
2022-08-14T12:37:32.186Z,33.50
2022-08-14T12:40:19.527Z,33.70
2022-08-14T12:42:53.700Z,34.30
2022-08-14T12:45:32.812Z,33.90
2022-08-14T12:48:21.112Z,33.80
2022-08-14T12:53:43.619Z,33.30
2022-08-14T12:56:32.774Z,33.50
2022-08-14T12:59:05.058Z,33.50
2022-08-14T13:01:59.432Z,33.00
2022-08-14T13:04:23.273Z,33.60
2022-08-14T13:06:53.089Z,34.50
2022-08-14T13:09:35.819Z,34.90
2022-08-14T13:12:33.517Z,35.30
2022-08-14T13:14:57.945Z,35.20
2022-08-14T13:17:27.314Z,34.30
2022-08-14T13:19:58.339Z,34.30
2022-08-14T13:22:33.531Z,35.20
2022-08-14T13:25:09.393Z,35.10
2022-08-14T13:27:40.597Z,34.40
2022-08-14T13:30:14.474Z,34.40
2022-08-14T13:32:53.234Z,34.50
2022-08-14T13:35:22.706Z,34.40
2022-08-14T13:37:53.376Z,34.60
2022-08-14T13:40:26.226Z,34.20
2022-08-14T13:42:57.175Z,34.40
2022-08-14T13:45:56.407Z,34.40
2022-08-14T13:48:27.711Z,35.00
2022-08-14T13:51:04.783Z,35.50
2022-08-14T13:53:38.238Z,35.70
2022-08-14T13:56:36.164Z,36.00
2022-08-14T13:59:03.997Z,36.20
2022-08-14T14:01:43.312Z,35.80
2022-08-14T14:04:19.073Z,35.00
2022-08-14T14:06:51.063Z,34.10
2022-08-14T14:09:32.450Z,33.80
2022-08-14T14:12:38.150Z,34.10
2022-08-14T14:14:57.567Z,34.00
2022-08-14T14:17:33.564Z,33.50
2022-08-14T14:20:03.077Z,33.20
2022-08-14T14:22:35.871Z,33.10
2022-08-14T14:25:23.647Z,33.10
2022-08-14T14:27:54.035Z,33.40
2022-08-14T14:30:51.851Z,33.70
2022-08-14T14:33:42.332Z,33.80
2022-08-14T14:36:04.998Z,33.60
2022-08-14T14:38:40.995Z,33.60
2022-08-14T14:41:10.654Z,33.50
2022-08-14T14:43:44.961Z,33.50
2022-08-14T14:46:15.764Z,33.60
2022-08-14T14:48:46.609Z,33.50
2022-08-14T14:51:22.291Z,33.30
2022-08-14T14:53:52.433Z,32.90
2022-08-14T14:56:49.894Z,33.20
2022-08-14T14:59:13.476Z,33.40
2022-08-14T15:01:44.979Z,33.30
2022-08-14T15:04:20.001Z,33.40
2022-08-14T15:06:49.960Z,33.50
2022-08-14T15:09:23.611Z,33.50
2022-08-14T15:11:52.163Z,33.50
2022-08-14T15:14:54.613Z,33.60
2022-08-14T15:17:12.920Z,33.50
2022-08-14T15:19:42.125Z,33.60
2022-08-14T15:22:25.295Z,33.60
2022-08-14T15:24:53.655Z,33.50
2022-08-14T15:27:26.529Z,33.40
2022-08-14T15:29:56.611Z,33.20
2022-08-14T15:32:25.003Z,32.90
2022-08-14T15:34:58.172Z,32.30
2022-08-14T15:37:26.373Z,32.40
2022-08-14T15:40:02.246Z,32.20
2022-08-14T15:42:32.014Z,32.20
2022-08-14T15:45:02.416Z,32.20
2022-08-14T15:47:32.316Z,32.20
2022-08-14T15:50:04.851Z,32.10
2022-08-14T15:52:37.175Z,32.10
2022-08-14T15:55:10.157Z,32.10
2022-08-14T15:58:01.934Z,32.20
2022-08-14T16:00:51.838Z,32.20
2022-08-14T16:03:27.582Z,32.00
2022-08-14T16:06:10.738Z,31.80
2022-08-14T16:11:14.184Z,32.10
2022-08-14T16:13:44.506Z,31.90
2022-08-14T16:16:47.517Z,31.80
2022-08-14T16:19:09.600Z,31.80
2022-08-14T16:22:01.404Z,31.60
2022-08-14T16:24:33.753Z,31.30
2022-08-14T16:27:03.506Z,31.10
2022-08-14T16:29:35.736Z,31.10
2022-08-14T16:32:32.587Z,30.90
2022-08-14T16:34:55.906Z,30.70
2022-08-14T16:37:33.931Z,30.60
2022-08-14T16:40:03.628Z,30.60
2022-08-14T16:43:02.948Z,30.70
2022-08-14T16:45:26.529Z,30.70
2022-08-14T16:47:57.309Z,30.70
2022-08-14T16:50:43.192Z,30.70
2022-08-14T16:53:17.283Z,30.80
2022-08-14T16:55:51.104Z,30.80
2022-08-14T16:58:29.943Z,30.60
2022-08-14T17:01:23.191Z,30.70
2022-08-14T17:04:00.713Z,30.60
2022-08-14T17:06:45.867Z,30.40
2022-08-14T17:09:33.476Z,30.50
2022-08-14T17:12:07.579Z,30.40
2022-08-14T17:14:57.460Z,30.60
2022-08-14T17:17:41.768Z,30.60
2022-08-14T17:20:39.580Z,30.60
2022-08-14T17:23:02.988Z,30.50
2022-08-14T17:25:39.731Z,30.50
2022-08-14T17:28:52.099Z,30.50
2022-08-14T17:31:08.715Z,30.50
2022-08-14T17:33:40.546Z,30.40
2022-08-14T17:36:21.085Z,30.40
2022-08-14T17:39:06.447Z,30.40
2022-08-14T17:41:38.843Z,30.40
2022-08-14T17:44:20.166Z,30.20
2022-08-14T17:46:56.916Z,30.10
2022-08-14T17:49:31.873Z,30.10
2022-08-14T17:52:07.843Z,30.00
2022-08-14T17:54:47.517Z,29.90
2022-08-14T17:57:23.224Z,29.80
2022-08-14T17:59:52.876Z,29.60
2022-08-14T18:02:31.301Z,29.50
2022-08-14T18:05:03.084Z,29.30
2022-08-14T18:08:31.242Z,29.20
2022-08-14T18:10:54.967Z,29.10
2022-08-14T18:13:11.450Z,28.90
2022-08-14T18:15:41.397Z,28.80
2022-08-14T18:18:13.799Z,28.60
2022-08-14T18:21:24.337Z,28.40
2022-08-14T18:23:34.166Z,28.20
2022-08-14T18:26:37.079Z,28.00
2022-08-14T18:29:02.276Z,27.80
2022-08-14T18:31:44.139Z,27.60
2022-08-14T18:34:31.822Z,27.40
2022-08-14T18:37:17.820Z,27.20
2022-08-14T18:40:00.973Z,27.00
2022-08-14T18:42:45.705Z,26.80
2022-08-14T18:45:18.497Z,26.60
2022-08-14T18:48:06.698Z,26.40
2022-08-14T18:50:52.377Z,26.30
2022-08-14T18:53:25.027Z,26.10
2022-08-14T18:56:09.313Z,25.90
2022-08-14T18:58:56.854Z,25.70
2022-08-14T19:01:30.356Z,25.60
2022-08-14T19:04:01.258Z,25.50
2022-08-14T19:06:55.921Z,25.40
2022-08-14T19:09:57.784Z,25.30
2022-08-14T19:13:00.474Z,25.30
2022-08-14T19:15:31.821Z,25.30
2022-08-14T19:18:14.549Z,25.20
2022-08-14T19:20:53.753Z,25.20
2022-08-14T19:23:43.881Z,25.00
2022-08-14T19:26:35.636Z,24.90
2022-08-14T19:29:37.569Z,24.80
2022-08-14T19:32:28.474Z,24.70
2022-08-14T19:35:02.404Z,24.70
2022-08-14T19:37:52.447Z,24.60
2022-08-14T19:40:33.259Z,24.50
2022-08-14T19:43:06.627Z,24.40
2022-08-14T19:45:40.351Z,24.30
2022-08-14T19:48:15.940Z,24.20
2022-08-14T19:50:46.965Z,24.00
2022-08-14T19:53:17.733Z,23.90
2022-08-14T19:55:59.490Z,23.90
2022-08-14T19:58:55.136Z,24.00
2022-08-14T20:01:36.337Z,24.30
2022-08-14T20:04:44.944Z,24.30
2022-08-14T20:07:00.140Z,24.20
2022-08-14T20:11:06.962Z,24.20
2022-08-14T20:12:28.842Z,24.40
2022-08-14T20:15:08.659Z,24.70
2022-08-14T20:17:40.437Z,24.90
2022-08-14T20:20:20.909Z,25.20
2022-08-14T20:23:11.516Z,25.40
2022-08-14T20:25:45.637Z,25.50
2022-08-14T20:28:35.646Z,25.40
2022-08-14T20:31:15.895Z,25.40
2022-08-14T20:34:06.972Z,25.30
2022-08-14T20:36:40.959Z,25.30
2022-08-14T20:39:15.216Z,25.30
2022-08-14T20:41:51.530Z,25.40
2022-08-14T20:44:39.024Z,25.40
2022-08-14T20:47:08.044Z,25.40
2022-08-14T20:49:37.325Z,25.30
2022-08-14T20:52:19.104Z,25.30
2022-08-14T20:54:51.468Z,25.20
2022-08-14T20:57:20.872Z,25.10
2022-08-14T20:59:53.023Z,25.00
2022-08-14T21:02:34.631Z,24.80
2022-08-14T21:05:16.916Z,24.70
2022-08-14T21:07:51.194Z,24.60
2022-08-14T21:10:35.891Z,24.50
2022-08-14T21:14:08.915Z,24.50
2022-08-14T21:16:03.795Z,24.40
2022-08-14T21:18:44.900Z,24.40
2022-08-14T21:21:19.711Z,24.40
2022-08-14T21:23:54.738Z,24.30
2022-08-14T21:26:50.620Z,24.30
2022-08-14T21:29:14.662Z,24.30
2022-08-14T21:31:55.589Z,24.40
2022-08-14T21:34:31.065Z,24.40
2022-08-14T21:37:09.039Z,24.60
2022-08-14T21:39:38.495Z,24.60
2022-08-14T21:42:07.233Z,24.60
2022-08-14T21:44:43.087Z,24.60
2022-08-14T21:47:13.502Z,24.70
2022-08-14T21:49:48.168Z,24.80
2022-08-14T21:52:51.987Z,24.80
2022-08-14T21:55:13.898Z,24.80
2022-08-14T21:58:38.548Z,24.80
2022-08-14T22:00:39.391Z,24.70
2022-08-14T22:03:10.643Z,24.60
2022-08-14T22:05:41.925Z,24.60
2022-08-14T22:08:14.181Z,24.50
2022-08-14T22:10:46.402Z,24.30
2022-08-14T22:13:16.801Z,24.30
2022-08-14T22:15:50.155Z,24.30
2022-08-14T22:18:21.186Z,24.30
2022-08-14T22:20:56.687Z,24.20
2022-08-14T22:23:27.080Z,24.20
2022-08-14T22:25:56.185Z,24.10
2022-08-14T22:28:32.774Z,24.10
2022-08-14T22:31:03.949Z,24.00
2022-08-14T22:33:39.949Z,23.90
2022-08-14T22:36:25.589Z,23.80
2022-08-14T22:38:54.623Z,23.80
2022-08-14T22:41:27.767Z,23.70
2022-08-14T22:44:06.552Z,23.70
2022-08-14T22:46:34.978Z,23.70
2022-08-14T22:49:16.378Z,23.50
2022-08-14T22:51:53.896Z,23.50
2022-08-14T22:54:52.653Z,23.40
2022-08-14T22:57:12.831Z,23.30
2022-08-14T22:59:41.100Z,23.30
2022-08-14T23:02:13.837Z,23.30
2022-08-14T23:04:53.723Z,23.20
2022-08-14T23:07:24.701Z,23.20
2022-08-14T23:09:56.486Z,23.00
2022-08-14T23:12:31.580Z,22.90
2022-08-14T23:15:01.056Z,22.80
2022-08-14T23:17:39.379Z,22.80
2022-08-14T23:20:19.071Z,22.60
2022-08-14T23:22:52.576Z,22.60
2022-08-14T23:25:57.079Z,22.60
2022-08-14T23:28:34.473Z,22.50
2022-08-14T23:31:05.918Z,22.50
2022-08-14T23:33:36.658Z,22.50
2022-08-14T23:36:28.457Z,22.40
2022-08-14T23:39:07.239Z,22.40
2022-08-14T23:41:47.092Z,22.40
2022-08-14T23:44:23.609Z,22.30
2022-08-14T23:46:58.768Z,22.30
2022-08-14T23:49:56.411Z,22.20
2022-08-14T23:52:56.203Z,22.20
2022-08-14T23:55:12.830Z,22.20
2022-08-14T23:57:44.135Z,22.20
